Time;durP1;ratioP1;P1;durP2;ratioP2;P2;SDS_P1;SDS_P2;PMS_P1;PMS_P2;Temp;Humidity;BMP_temperature;BMP_pressure;BME280_temperature;BME280_humidity;BME280_pressure;Samples;Min_cycle;Max_cycle;Signal;HPM_P1;HPM_P2
2021/09/12 00:00:44;;;;;;;4.07;3.05;;;16.80;99.90;16.80;100718.00;;;;4958407;28;108339;-67
2021/09/12 00:03:10;;;;;;;4.90;3.25;;;16.80;99.90;16.80;100717.00;;;;4960810;28;87871;-67
2021/09/12 00:05:36;;;;;;;5.10;3.05;;;16.70;99.90;16.80;100717.00;;;;4977181;28;88670;-67
2021/09/12 00:08:02;;;;;;;4.68;3.65;;;16.70;99.90;16.80;100718.00;;;;4977697;28;87934;-67
2021/09/12 00:10:28;;;;;;;4.78;3.45;;;16.70;99.90;16.80;100727.00;;;;4977170;28;90997;-67
2021/09/12 00:12:56;;;;;;;5.40;3.13;;;16.60;99.90;16.70;100723.00;;;;4963355;28;88540;-67
2021/09/12 00:15:22;;;;;;;6.20;3.85;;;16.60;99.90;16.70;100725.00;;;;4946004;28;88559;-67
2021/09/12 00:17:48;;;;;;;4.03;3.53;;;16.60;99.90;16.70;100721.00;;;;4977257;28;92506;-67
2021/09/12 00:20:14;;;;;;;4.32;3.50;;;16.60;99.90;16.60;100730.00;;;;4976480;28;108821;-67
2021/09/12 00:22:40;;;;;;;3.83;3.25;;;16.60;99.90;16.60;100724.00;;;;4976498;28;89348;-67
2021/09/12 00:25:07;;;;;;;5.47;3.55;;;16.50;99.90;16.60;100726.00;;;;4977163;28;89229;-67
2021/09/12 00:27:33;;;;;;;6.45;3.05;;;16.50;99.90;16.60;100721.00;;;;4980235;28;93142;-67
2021/09/12 00:29:59;;;;;;;3.95;3.45;;;16.50;99.90;16.60;100728.00;;;;4991300;28;87250;-67
2021/09/12 00:32:25;;;;;;;5.22;3.83;;;16.50;99.90;16.50;100724.00;;;;4975331;28;117770;-67
2021/09/12 00:34:51;;;;;;;3.88;3.03;;;16.40;99.90;16.50;100723.00;;;;4975900;28;118412;-67
2021/09/12 00:37:17;;;;;;;4.30;3.78;;;16.40;99.90;16.50;100724.00;;;;4958213;28;87840;-67
2021/09/12 00:39:43;;;;;;;5.68;3.65;;;16.40;99.90;16.40;100727.00;;;;4976858;28;108402;-68
2021/09/12 00:42:08;;;;;;;4.28;3.67;;;16.40;99.90;16.40;100725.00;;;;4975272;28;117543;-68
2021/09/12 00:44:34;;;;;;;3.13;2.83;;;16.30;99.90;16.40;100723.00;;;;4975107;28;109727;-67
2021/09/12 00:47:12;;;;;;;6.03;3.70;;;16.20;99.90;16.30;100721.00;;;;4976119;28;110605;-67
2021/09/12 00:49:40;;;;;;;4.25;3.25;;;16.30;99.90;16.30;100718.00;;;;4976489;28;87686;-67
2021/09/12 00:52:12;;;;;;;4.95;3.65;;;16.30;99.90;16.30;100718.00;;;;4976842;28;88468;-67
2021/09/12 00:54:39;;;;;;;5.88;3.72;;;16.20;99.90;16.30;100724.00;;;;4974262;28;88619;-67
2021/09/12 00:57:10;;;;;;;7.53;4.45;;;16.20;99.90;16.20;100719.00;;;;4976980;28;87679;-68
2021/09/12 00:59:41;;;;;;;4.65;4.03;;;16.20;99.90;16.20;100723.00;;;;4976961;28;87836;-68
2021/09/12 01:02:10;;;;;;;9.55;3.88;;;16.20;99.90;16.20;100728.00;;;;4976470;28;89195;-68
2021/09/12 01:04:37;;;;;;;6.75;4.55;;;16.10;99.90;16.20;100727.00;;;;4976079;28;88731;-68
2021/09/12 01:07:07;;;;;;;6.50;3.72;;;16.10;99.90;16.20;100731.00;;;;4977557;28;87957;-68
2021/09/12 01:09:37;;;;;;;5.97;3.75;;;16.10;99.90;16.20;100727.00;;;;4976671;28;87944;-68
2021/09/12 01:12:03;;;;;;;6.22;4.45;;;16.10;99.90;16.20;100732.00;;;;4976201;28;88951;-67
2021/09/12 01:14:30;;;;;;;5.53;3.63;;;16.10;99.90;16.20;100730.00;;;;4975638;28;106963;-67
2021/09/12 01:16:58;;;;;;;6.88;4.55;;;16.10;99.90;16.20;100725.00;;;;4976690;28;87811;-67
2021/09/12 01:19:24;;;;;;;7.10;4.32;;;16.10;99.90;16.20;100727.00;;;;4976898;28;87868;-68
2021/09/12 01:21:59;;;;;;;4.53;3.50;;;16.10;99.90;16.20;100726.00;;;;4976797;28;92267;-68
2021/09/12 01:24:29;;;;;;;5.85;3.25;;;16.10;99.90;16.30;100728.00;;;;4969706;28;101931;-66
2021/09/12 01:26:55;;;;;;;5.40;3.95;;;16.20;99.90;16.30;100729.00;;;;4977142;28;87762;-68
2021/09/12 01:29:21;;;;;;;3.97;3.53;;;16.20;99.90;16.40;100719.00;;;;4972779;28;87020;-68
2021/09/12 01:31:47;;;;;;;5.65;4.20;;;16.30;99.90;16.50;100728.00;;;;4975663;28;117258;-67
2021/09/12 01:34:13;;;;;;;4.22;3.10;;;16.30;99.90;16.50;100724.00;;;;4975821;28;87897;-66
2021/09/12 01:36:40;;;;;;;4.78;3.63;;;16.40;99.90;16.50;100721.00;;;;4976226;28;88839;-67
2021/09/12 01:39:06;;;;;;;6.93;3.92;;;16.40;99.90;16.60;100720.00;;;;4976215;28;87912;-67
2021/09/12 01:41:34;;;;;;;5.60;3.60;;;16.70;99.90;16.60;100713.00;;;;4975947;28;91792;-67
2021/09/12 01:44:03;;;;;;;4.82;3.80;;;16.50;99.90;16.60;100717.00;;;;4957958;28;87932;-66
2021/09/12 01:46:29;;;;;;;5.03;3.60;;;16.50;99.90;16.50;100716.00;;;;4976015;28;87980;-65
2021/09/12 01:48:57;;;;;;;2.88;2.40;;;16.40;99.90;16.50;100707.00;;;;4975650;28;87718;-67
2021/09/12 01:51:23;;;;;;;4.00;3.53;;;16.40;99.90;16.50;100714.00;;;;4976054;28;88415;-67
2021/09/12 01:53:49;;;;;;;4.85;3.38;;;16.40;99.90;16.40;100714.00;;;;4974806;28;100740;-67
2021/09/12 01:56:15;;;;;;;4.55;3.25;;;16.30;99.90;16.30;100728.00;;;;4976188;28;87652;-68
2021/09/12 01:58:41;;;;;;;6.47;3.67;;;16.30;99.90;16.30;100717.00;;;;4975989;28;87936;-67
2021/09/12 02:01:07;;;;;;;3.55;2.90;;;16.20;99.90;16.20;100709.00;;;;4975634;28;88723;-66
2021/09/12 02:03:33;;;;;;;3.10;2.35;;;16.10;99.90;16.10;100705.00;;;;4974302;28;95165;-67
2021/09/12 02:05:59;;;;;;;4.95;3.35;;;16.10;99.90;16.10;100704.00;;;;4957749;28;87650;-66
2021/09/12 02:08:25;;;;;;;3.15;2.72;;;16.20;99.90;16.00;100710.00;;;;4975785;28;87800;-66
2021/09/12 02:10:51;;;;;;;3.45;2.53;;;16.00;99.90;16.00;100716.00;;;;4975659;28;88991;-67
2021/09/12 02:13:17;;;;;;;4.90;3.17;;;15.90;99.90;15.90;100712.00;;;;4972741;28;88157;-67
2021/09/12 02:15:43;;;;;;;3.80;3.42;;;15.90;99.90;15.90;100695.00;;;;4974103;28;87912;-66
2021/09/12 02:18:09;;;;;;;4.53;2.75;;;15.80;99.90;15.90;100699.00;;;;4974899;28;108434;-66
2021/09/12 02:20:35;;;;;;;7.93;3.92;;;15.80;99.90;15.80;100711.00;;;;4976550;28;88468;-66
2021/09/12 02:23:01;;;;;;;3.30;2.90;;;15.80;99.90;15.80;100702.00;;;;4973981;28;96995;-66
2021/09/12 02:25:27;;;;;;;4.45;3.47;;;15.70;99.90;15.80;100704.00;;;;4976116;28;88932;-66
2021/09/12 02:27:52;;;;;;;3.80;3.40;;;15.70;99.90;15.80;100701.00;;;;4976465;28;87760;-66
2021/09/12 02:30:19;;;;;;;4.82;3.20;;;15.70;99.90;15.80;100703.00;;;;4974286;28;118144;-67
2021/09/12 02:32:44;;;;;;;4.05;2.80;;;15.70;99.90;15.70;100706.00;;;;4971644;28;89146;-66
2021/09/12 02:35:11;;;;;;;5.25;3.60;;;15.70;99.90;15.70;100705.00;;;;4974437;28;110247;-66
2021/09/12 02:37:37;;;;;;;6.18;3.60;;;15.70;99.90;15.70;100705.00;;;;4974329;28;93366;-68
2021/09/12 02:40:03;;;;;;;3.83;2.70;;;15.60;99.90;15.80;100699.00;;;;4974151;28;118742;-66
2021/09/12 02:42:29;;;;;;;5.15;3.53;;;15.70;99.90;15.80;100696.00;;;;4975922;28;89883;-66
2021/09/12 02:44:55;;;;;;;4.53;3.72;;;15.70;99.90;15.80;100702.00;;;;4974219;28;108644;-66
2021/09/12 02:47:21;;;;;;;5.50;3.58;;;15.70;99.90;15.80;100705.00;;;;4974482;28;109321;-66
2021/09/12 02:49:47;;;;;;;7.05;3.72;;;15.70;99.90;15.90;100711.00;;;;4973808;28;118838;-66
2021/09/12 02:52:12;;;;;;;4.25;3.20;;;15.70;99.90;15.90;100705.00;;;;4974888;28;101331;-66
2021/09/12 02:54:38;;;;;;;4.32;3.42;;;15.80;99.90;16.00;100706.00;;;;4975142;28;87840;-66
2021/09/12 02:57:05;;;;;;;4.53;4.00;;;15.90;99.90;16.00;100709.00;;;;4975213;28;88294;-66
2021/09/12 02:59:31;;;;;;;5.28;3.72;;;15.90;99.90;16.00;100706.00;;;;4975079;28;88135;-67
2021/09/12 03:01:57;;;;;;;7.43;3.55;;;15.90;99.90;16.10;100711.00;;;;4956533;28;95215;-65
2021/09/12 03:04:24;;;;;;;5.82;3.47;;;16.00;99.90;16.10;100712.00;;;;4976212;28;110834;-68
2021/09/12 03:06:50;;;;;;;5.55;3.55;;;16.00;99.90;16.10;100716.00;;;;4979047;28;87033;-68
2021/09/12 03:09:16;;;;;;;4.30;3.20;;;16.00;99.90;16.10;100700.00;;;;4977996;28;94094;-66
2021/09/12 03:11:42;;;;;;;5.25;3.30;;;16.00;99.90;16.20;100694.00;;;;4977974;28;117877;-66
2021/09/12 03:14:08;;;;;;;4.55;3.60;;;16.10;99.90;16.20;100702.00;;;;4976323;28;110074;-66
2021/09/12 03:16:33;;;;;;;5.90;3.72;;;16.10;99.90;16.20;100699.00;;;;4978423;28;107533;-66
2021/09/12 03:18:59;;;;;;;5.20;3.50;;;16.10;99.90;16.20;100708.00;;;;4977751;28;107194;-65
2021/09/12 03:21:25;;;;;;;4.85;3.45;;;16.10;99.90;16.20;100702.00;;;;4978394;28;87862;-66
2021/09/12 03:23:51;;;;;;;5.28;3.55;;;16.10;99.90;16.20;100693.00;;;;4977028;28;110936;-66
2021/09/12 03:26:16;;;;;;;4.82;3.65;;;16.10;99.90;16.20;100699.00;;;;4977788;28;108236;-66
2021/09/12 03:28:42;;;;;;;4.43;3.65;;;16.20;99.90;16.20;100699.00;;;;4978071;28;88126;-66
2021/09/12 03:31:08;;;;;;;5.93;4.43;;;16.10;99.90;16.20;100705.00;;;;4977735;28;117831;-66
2021/09/12 03:33:34;;;;;;;9.43;3.90;;;16.10;99.90;16.20;100701.00;;;;4976892;28;100888;-66
2021/09/12 03:36:00;;;;;;;5.40;3.80;;;16.20;99.90;16.20;100700.00;;;;4978303;28;87617;-66
2021/09/12 03:38:25;;;;;;;6.55;3.60;;;16.10;99.90;16.20;100701.00;;;;4976233;28;119233;-67
2021/09/12 03:40:51;;;;;;;6.55;3.30;;;16.10;99.90;16.20;100687.00;;;;4977613;28;103196;-67
2021/09/12 03:43:17;;;;;;;3.88;3.33;;;16.10;99.90;16.10;100696.00;;;;4978138;28;87969;-67
2021/09/12 03:45:43;;;;;;;4.47;3.35;;;16.10;99.90;16.10;100695.00;;;;4977587;28;109088;-66
2021/09/12 03:48:09;;;;;;;7.20;3.65;;;16.00;99.90;16.10;100699.00;;;;4983224;28;88038;-66
2021/09/12 03:50:35;;;;;;;7.13;5.03;;;16.00;99.90;16.10;100702.00;;;;4983324;28;115707;-66
2021/09/12 03:53:01;;;;;;;7.32;5.50;;;16.00;99.90;16.00;100702.00;;;;4976272;28;109076;-67
2021/09/12 03:55:27;;;;;;;11.07;4.93;;;16.00;99.90;16.00;100698.00;;;;4978640;28;86819;-68
2021/09/12 03:57:53;;;;;;;6.53;4.53;;;15.90;99.90;16.00;100694.00;;;;4977391;28;104125;-65
2021/09/12 04:00:19;;;;;;;8.60;4.93;;;15.90;99.90;16.00;100697.00;;;;4976375;28;116834;-65
2021/09/12 04:02:45;;;;;;;8.85;4.13;;;15.90;99.90;16.00;100698.00;;;;4973940;28;110615;-66
2021/09/12 04:05:11;;;;;;;5.45;3.83;;;15.90;99.90;16.00;100688.00;;;;4976693;28;87680;-67
2021/09/12 04:07:37;;;;;;;6.45;3.67;;;15.90;99.90;16.00;100697.00;;;;4958953;28;88153;-66
2021/09/12 04:10:05;;;;;;;4.40;3.42;;;15.90;99.90;16.00;100694.00;;;;4977161;28;89049;-67
2021/09/12 04:12:31;;;;;;;3.83;3.42;;;15.90;99.90;16.00;100702.00;;;;4977172;28;90133;-67
2021/09/12 04:14:56;;;;;;;4.00;3.05;;;15.90;99.90;16.00;100701.00;;;;4977142;28;88036;-68
2021/09/12 04:17:22;;;;;;;4.97;3.13;;;15.90;99.90;16.00;100695.00;;;;4975466;28;117213;-69
2021/09/12 04:19:48;;;;;;;7.25;3.83;;;15.90;99.90;16.00;100692.00;;;;4977386;28;117249;-67
2021/09/12 04:22:13;;;;;;;4.18;2.83;;;15.90;99.90;16.00;100685.00;;;;4941732;28;109772;-67
2021/09/12 04:24:39;;;;;;;12.48;3.70;;;15.90;99.90;16.00;100691.00;;;;4968929;28;87907;-66
2021/09/12 04:27:05;;;;;;;6.47;3.47;;;16.00;99.90;16.10;100687.00;;;;4975982;28;118735;-66
2021/09/12 04:29:31;;;;;;;4.97;3.35;;;16.00;99.90;16.10;100699.00;;;;4976838;28;88770;-66
2021/09/12 04:31:57;;;;;;;4.40;3.20;;;16.00;99.90;16.10;100703.00;;;;4975866;28;110960;-66
2021/09/12 04:34:22;;;;;;;4.85;3.53;;;16.00;99.90;16.10;100713.00;;;;4958249;28;87684;-66
2021/09/12 04:36:48;;;;;;;2.90;2.58;;;16.00;99.90;16.10;100703.00;;;;4976946;28;117484;-66
2021/09/12 04:39:14;;;;;;;2.97;2.67;;;16.00;99.90;16.10;100705.00;;;;4976732;28;87810;-66
2021/09/12 04:41:40;;;;;;;4.80;3.13;;;16.00;99.90;16.10;100711.00;;;;4977222;28;108280;-66
2021/09/12 04:44:05;;;;;;;10.48;2.72;;;16.00;99.90;16.10;100703.00;;;;4975860;28;108136;-67
2021/09/12 04:46:31;;;;;;;4.47;3.67;;;16.10;99.90;16.10;100707.00;;;;4977076;28;89849;-66
2021/09/12 04:48:57;;;;;;;4.90;3.50;;;16.20;99.90;16.10;100714.00;;;;4975510;28;117340;-66
2021/09/12 04:51:24;;;;;;;5.32;3.17;;;16.00;99.90;16.20;100713.00;;;;4976244;28;110700;-66
2021/09/12 04:53:50;;;;;;;4.78;2.88;;;16.10;99.90;16.20;100719.00;;;;4976801;28;87759;-66
2021/09/12 04:56:16;;;;;;;4.65;2.67;;;16.10;99.90;16.20;100718.00;;;;4976397;28;108564;-66
2021/09/12 04:58:41;;;;;;;4.03;2.97;;;16.10;99.90;16.30;100713.00;;;;4975675;28;88450;-66
2021/09/12 05:01:07;;;;;;;5.07;3.58;;;16.10;99.90;16.30;100716.00;;;;4976182;28;112591;-66
2021/09/12 05:03:33;;;;;;;4.93;3.72;;;16.20;99.90;16.30;100704.00;;;;4975172;28;100097;-66
2021/09/12 05:05:58;;;;;;;7.32;3.97;;;16.20;99.90;16.30;100710.00;;;;4976297;28;117516;-68
2021/09/12 05:08:24;;;;;;;4.13;2.65;;;16.20;99.90;16.40;100715.00;;;;4975558;28;117670;-69
2021/09/12 05:10:50;;;;;;;4.45;3.25;;;16.20;99.90;16.40;100706.00;;;;4976370;28;109698;-68
2021/09/12 05:13:16;;;;;;;3.80;2.58;;;16.20;99.90;16.40;100715.00;;;;4976290;28;108894;-66
2021/09/12 05:15:43;;;;;;;4.10;2.70;;;16.30;99.90;16.40;100714.00;;;;4976571;28;91949;-66
2021/09/12 05:18:10;;;;;;;4.05;3.17;;;16.30;99.90;16.40;100710.00;;;;4976155;28;87851;-68
2021/09/12 05:20:37;;;;;;;3.00;2.70;;;16.30;99.90;16.40;100719.00;;;;4976900;28;87805;-66
2021/09/12 05:23:04;;;;;;;3.60;3.25;;;16.30;99.90;16.40;100712.00;;;;4975923;28;87527;-66
2021/09/12 05:25:31;;;;;;;5.28;3.38;;;16.30;99.90;16.40;100711.00;;;;4976335;28;89373;-68
2021/09/12 05:27:57;;;;;;;3.80;3.00;;;16.30;99.90;16.40;100717.00;;;;4976275;28;88814;-66
2021/09/12 05:30:23;;;;;;;5.55;3.47;;;16.30;99.90;16.40;100715.00;;;;4976889;28;87797;-66
2021/09/12 05:32:49;;;;;;;5.68;4.18;;;16.30;99.90;16.50;100725.00;;;;4972382;28;109457;-66
2021/09/12 05:35:16;;;;;;;4.90;3.95;;;16.30;99.90;16.50;100720.00;;;;4955307;28;88084;-66
2021/09/12 05:37:44;;;;;;;6.10;3.83;;;16.40;99.90;16.50;100720.00;;;;4952800;28;88026;-66
2021/09/12 05:40:10;;;;;;;5.20;3.25;;;16.40;99.90;16.60;100718.00;;;;4952557;28;89141;-67
2021/09/12 05:42:37;;;;;;;4.72;3.53;;;16.40;99.90;16.60;100715.00;;;;4959997;28;87871;-67
2021/09/12 05:45:06;;;;;;;5.30;3.60;;;16.50;99.90;16.60;100718.00;;;;4959353;28;88437;-67
2021/09/12 05:47:32;;;;;;;5.97;4.25;;;16.50;99.90;16.60;100724.00;;;;4953839;28;87699;-67
2021/09/12 05:49:58;;;;;;;4.07;3.00;;;16.50;99.90;16.60;100709.00;;;;4953439;28;87629;-68
2021/09/12 05:52:24;;;;;;;4.70;3.42;;;16.50;99.90;16.70;100722.00;;;;4955586;28;87970;-68
2021/09/12 05:54:49;;;;;;;5.43;3.75;;;16.50;99.90;16.70;100714.00;;;;4961915;28;117546;-68
2021/09/12 05:57:15;;;;;;;7.53;4.47;;;16.60;99.90;16.70;100711.00;;;;4953654;28;88858;-68
2021/09/12 05:59:41;;;;;;;5.05;3.95;;;16.60;99.90;16.80;100710.00;;;;4953421;28;87890;-68
2021/09/12 06:02:07;;;;;;;5.35;3.47;;;16.60;99.90;16.80;100719.00;;;;4952224;28;108925;-68
2021/09/12 06:04:33;;;;;;;5.45;3.92;;;16.70;99.90;16.90;100720.00;;;;4952310;28;89629;-65
2021/09/12 06:06:59;;;;;;;6.95;3.60;;;16.70;99.90;16.90;100711.00;;;;4952757;28;118307;-66
2021/09/12 06:09:25;;;;;;;5.68;3.70;;;17.10;99.90;16.90;100724.00;;;;4952309;28;110516;-66
2021/09/12 06:11:51;;;;;;;5.35;3.60;;;16.80;99.90;17.00;100727.00;;;;4953734;28;87791;-68
2021/09/12 06:14:18;;;;;;;5.68;3.92;;;16.80;99.90;17.00;100727.00;;;;4952905;28;94231;-68
2021/09/12 06:16:44;;;;;;;4.20;3.78;;;16.90;99.90;17.10;100734.00;;;;4952765;28;89070;-67
2021/09/12 06:19:11;;;;;;;5.55;4.05;;;16.90;99.90;17.10;100730.00;;;;4953692;28;88252;-67
2021/09/12 06:21:36;;;;;;;6.07;3.92;;;17.00;99.90;17.20;100728.00;;;;4952863;28;109501;-68
2021/09/12 06:24:02;;;;;;;4.90;3.70;;;17.00;99.90;17.30;100737.00;;;;4951573;28;117517;-67
2021/09/12 06:26:28;;;;;;;6.30;4.00;;;17.10;99.90;17.40;100735.00;;;;4952481;28;88904;-66
2021/09/12 06:28:54;;;;;;;5.60;3.53;;;17.20;99.90;17.50;100743.00;;;;4955777;28;88948;-67
2021/09/12 06:31:21;;;;;;;5.38;4.28;;;17.30;99.90;17.60;100742.00;;;;4955417;28;88112;-66
2021/09/12 06:33:46;;;;;;;5.70;4.18;;;17.40;99.90;17.70;100735.00;;;;4959459;28;87883;-66
2021/09/12 06:36:12;;;;;;;6.75;3.83;;;17.50;99.90;17.70;100736.00;;;;4958929;28;118551;-67
2021/09/12 06:38:38;;;;;;;6.85;4.10;;;17.60;99.90;17.80;100736.00;;;;4957628;28;88404;-67
2021/09/12 06:41:04;;;;;;;14.75;7.95;;;17.60;99.90;17.90;100736.00;;;;4961003;28;87872;-67
2021/09/12 06:43:30;;;;;;;11.45;6.35;;;17.70;99.90;18.10;100736.00;;;;4954726;28;117569;-66
2021/09/12 06:45:56;;;;;;;9.40;5.80;;;17.80;99.90;18.20;100743.00;;;;4958272;28;88426;-67
2021/09/12 06:48:21;;;;;;;11.35;6.97;;;18.00;99.90;18.30;100727.00;;;;4954330;28;110132;-66
2021/09/12 06:50:47;;;;;;;13.32;5.70;;;18.10;99.90;18.40;100734.00;;;;4956802;28;87976;-66
2021/09/12 06:53:13;;;;;;;9.00;5.88;;;18.20;99.90;18.60;100741.00;;;;4955424;28;89593;-66
2021/09/12 06:55:40;;;;;;;10.13;5.07;;;18.40;99.90;18.70;100743.00;;;;4957241;28;114960;-66
2021/09/12 06:58:06;;;;;;;11.48;5.75;;;18.50;99.90;18.80;100740.00;;;;4957206;28;87791;-66
2021/09/12 07:00:32;;;;;;;6.38;4.95;;;18.60;99.90;18.80;100738.00;;;;4958165;28;109701;-66
2021/09/12 07:02:58;;;;;;;7.45;4.93;;;18.60;99.90;18.90;100745.00;;;;4955723;28;88198;-66
2021/09/12 07:05:24;;;;;;;8.32;4.63;;;18.70;99.90;18.90;100737.00;;;;4963004;28;101474;-67
2021/09/12 07:07:50;;;;;;;7.15;4.90;;;18.80;99.90;19.00;100736.00;;;;4959681;28;112100;-66
2021/09/12 07:10:19;;;;;;;7.20;4.10;;;18.80;99.90;19.10;100743.00;;;;4961213;28;87172;-66
2021/09/12 07:12:46;;;;;;;9.10;5.28;;;18.90;99.90;19.20;100751.00;;;;4962899;28;88846;-66
2021/09/12 07:15:12;;;;;;;5.63;3.97;;;19.00;99.90;19.30;100761.00;;;;4961838;28;117147;-66
2021/09/12 07:17:39;;;;;;;5.95;4.45;;;19.10;99.90;19.40;100751.00;;;;4965256;28;88537;-66
2021/09/12 07:20:05;;;;;;;5.50;4.07;;;19.20;99.90;19.50;100744.00;;;;4961152;28;87756;-65
2021/09/12 07:22:31;;;;;;;5.80;4.30;;;19.30;99.90;19.60;100755.00;;;;4961796;28;89034;-66
2021/09/12 07:24:57;;;;;;;9.15;5.53;;;19.40;99.90;19.90;100751.00;;;;4955780;28;118410;-65
2021/09/12 07:27:23;;;;;;;8.68;5.35;;;20.00;99.90;20.20;100754.00;;;;4961777;28;110443;-65
2021/09/12 07:29:48;;;;;;;5.68;4.72;;;19.90;99.90;20.50;100759.00;;;;4958830;28;87737;-66
2021/09/12 07:32:14;;;;;;;5.80;4.43;;;20.20;99.90;20.80;100754.00;;;;4954302;28;118152;-65
2021/09/12 07:34:40;;;;;;;10.95;5.25;;;20.50;99.90;21.20;100759.00;;;;4965881;28;114657;-65
2021/09/12 07:37:06;;;;;;;7.15;4.82;;;20.80;99.90;21.50;100758.00;;;;4958413;28;105752;-66
2021/09/12 07:39:31;;;;;;;6.50;4.53;;;21.20;99.90;21.90;100760.00;;;;4962162;28;87861;-66
2021/09/12 07:41:58;;;;;;;7.35;4.82;;;21.50;99.90;22.20;100762.00;;;;4953526;28;118323;-65
2021/09/12 07:44:24;;;;;;;5.97;4.80;;;21.90;99.90;22.50;100757.00;;;;4962790;28;118389;-65
2021/09/12 07:46:49;;;;;;;5.88;3.40;;;22.10;99.90;22.60;100770.00;;;;4954169;28;110859;-65
2021/09/12 07:49:15;;;;;;;4.45;3.65;;;22.30;99.90;22.70;100772.00;;;;4962116;28;88078;-66
2021/09/12 07:51:41;;;;;;;4.80;3.30;;;22.50;99.90;22.90;100782.00;;;;4959700;28;88596;-66
2021/09/12 07:54:07;;;;;;;5.07;3.78;;;22.70;99.90;23.10;100773.00;;;;4960045;28;117210;-67
2021/09/12 07:56:32;;;;;;;3.30;2.58;;;22.80;99.90;23.20;100786.00;;;;4956024;28;110348;-66
2021/09/12 07:58:58;;;;;;;5.60;2.90;;;22.90;99.90;23.20;100784.00;;;;4954862;28;86978;-65
2021/09/12 08:01:24;;;;;;;8.82;3.75;;;23.00;99.90;23.20;100788.00;;;;4965155;28;88902;-66
2021/09/12 08:03:49;;;;;;;5.97;3.97;;;23.00;99.90;23.10;100796.00;;;;4962355;28;117980;-67
2021/09/12 08:06:15;;;;;;;5.07;3.25;;;22.80;99.90;23.10;100796.00;;;;4953226;28;90275;-67
2021/09/12 08:08:41;;;;;;;6.10;3.28;;;22.90;99.90;23.20;100794.00;;;;4957855;28;88112;-67
2021/09/12 08:11:07;;;;;;;4.50;3.28;;;23.00;99.90;23.50;100797.00;;;;4967946;28;88951;-66
2021/09/12 08:13:32;;;;;;;4.57;3.17;;;23.10;99.90;23.80;100794.00;;;;4960670;28;87916;-65
2021/09/12 08:15:58;;;;;;;4.85;3.55;;;23.40;99.90;24.00;100787.00;;;;4963800;28;110104;-65
2021/09/12 08:18:24;;;;;;;5.57;3.63;;;23.70;99.90;24.20;100789.00;;;;4962966;28;87713;-64
2021/09/12 08:20:50;;;;;;;4.20;3.10;;;23.90;99.90;24.40;100785.00;;;;4954539;28;88975;-65
2021/09/12 08:23:15;;;;;;;2.65;2.35;;;24.10;99.90;24.50;100789.00;;;;4951811;28;87991;-65
2021/09/12 08:25:41;;;;;;;4.95;2.72;;;24.20;99.90;24.60;100792.00;;;;4967215;28;110031;-66
2021/09/12 08:28:07;;;;;;;2.92;2.60;;;24.30;99.90;24.80;100797.00;;;;4964331;28;87947;-66
2021/09/12 08:30:33;;;;;;;3.05;2.63;;;24.50;99.90;25.00;100793.00;;;;4963164;28;89189;-66
2021/09/12 08:32:59;;;;;;;3.75;2.45;;;24.70;99.90;25.30;100800.00;;;;4961291;28;117992;-68
2021/09/12 08:35:27;;;;;;;4.35;2.45;;;25.00;99.90;25.60;100793.00;;;;4954028;28;87764;-69
2021/09/12 08:37:53;;;;;;;2.65;2.22;;;25.20;99.90;25.70;100800.00;;;;4955167;28;87760;-71
2021/09/12 08:40:18;;;;;;;7.93;2.97;;;25.40;99.90;25.80;100797.00;;;;4970455;28;88520;-70
2021/09/12 08:42:46;;;;;;;2.97;1.98;;;25.50;99.70;25.90;100795.00;;;;4952412;28;117497;-70
2021/09/12 08:45:12;;;;;;;3.28;2.53;;;25.80;99.60;26.20;100797.00;;;;4956133;28;111456;-71
2021/09/12 08:47:40;;;;;;;2.15;1.95;;;25.80;98.60;26.40;100799.00;;;;4953464;28;98274;-71
2021/09/12 08:50:06;;;;;;;4.72;2.45;;;26.00;97.90;26.50;100791.00;;;;4954103;28;88692;-69
2021/09/12 08:52:32;;;;;;;2.28;1.70;;;26.10;94.20;26.50;100791.00;;;;4953092;28;97134;-70
2021/09/12 08:54:58;;;;;;;2.58;1.65;;;26.20;93.40;26.40;100799.00;;;;4949024;28;110030;-70
2021/09/12 08:57:23;;;;;;;3.72;2.67;;;26.10;94.10;26.40;100796.00;;;;4961879;28;110076;-69
2021/09/12 08:59:50;;;;;;;2.88;1.65;;;26.20;93.90;26.40;100792.00;;;;4963576;28;117392;-69
2021/09/12 09:02:24;;;;;;;4.32;2.28;;;26.10;93.80;26.50;100794.00;;;;4965085;28;94655;-69
2021/09/12 09:05:02;;;;;;;1.88;1.60;;;26.20;93.50;26.40;100802.00;;;;4952795;28;88054;-70
2021/09/12 09:07:32;;;;;;;3.30;1.63;;;26.20;93.20;26.40;100799.00;;;;4953975;28;87821;-70
2021/09/12 09:10:00;;;;;;;2.33;2.10;;;26.10;93.10;26.30;100791.00;;;;4952956;28;88510;-68
2021/09/12 09:12:37;;;;;;;2.67;2.03;;;26.10;92.40;26.10;100793.00;;;;4960684;28;88238;-68
2021/09/12 09:15:14;;;;;;;3.15;2.03;;;25.90;92.20;25.90;100798.00;;;;4957299;28;88256;-68
2021/09/12 09:17:54;;;;;;;6.57;2.45;;;25.80;92.60;25.80;100788.00;;;;4953603;28;87740;-69
2021/09/12 09:20:32;;;;;;;2.92;2.53;;;25.60;91.70;25.60;100790.00;;;;4954224;28;89353;-70
2021/09/12 09:22:59;;;;;;;2.25;2.05;;;25.50;91.80;25.50;100788.00;;;;4969199;28;88709;-68
2021/09/12 09:25:27;;;;;;;3.45;2.10;;;25.30;91.30;25.40;100788.00;;;;4972670;28;94130;-68
2021/09/12 09:28:08;;;;;;;2.38;2.17;;;25.20;91.10;25.20;100781.00;;;;4954328;28;87978;-69
2021/09/12 09:30:37;;;;;;;2.80;1.92;;;25.10;91.10;25.20;100784.00;;;;4953228;28;87725;-69
2021/09/12 09:33:25;;;;;;;3.53;1.90;;;25.00;91.70;25.30;100787.00;;;;4952809;28;89052;-70
2021/09/12 09:35:59;;;;;;;3.78;2.00;;;25.00;91.60;25.30;100781.00;;;;4962046;28;87898;-70
2021/09/12 09:38:39;;;;;;;6.07;2.40;;;24.90;91.60;25.30;100777.00;;;;4952304;28;87180;-70
2021/09/12 09:41:13;;;;;;;1.83;1.33;;;25.00;91.80;25.30;100783.00;;;;4952878;28;87666;-70
2021/09/12 09:43:46;;;;;;;2.42;1.80;;;25.00;92.10;25.30;100787.00;;;;4953762;28;87865;-70
2021/09/12 09:46:38;;;;;;;1.60;1.50;;;25.10;92.10;25.30;100782.00;;;;4957456;28;88698;-70
2021/09/12 09:49:28;;;;;;;2.65;1.98;;;25.00;92.30;25.30;100786.00;;;;4961001;28;87936;-70
2021/09/12 09:52:00;;;;;;;1.88;1.67;;;25.00;92.40;25.20;100786.00;;;;4952244;28;88014;-70
2021/09/12 09:54:32;;;;;;;2.97;1.92;;;25.00;92.40;25.20;100783.00;;;;4951932;28;88443;-70
2021/09/12 09:56:59;;;;;;;3.08;2.20;;;25.00;92.50;25.20;100782.00;;;;4955858;28;87751;-69
2021/09/12 09:59:27;;;;;;;2.15;1.65;;;24.90;92.50;25.10;100788.00;;;;4934869;28;88180;-70
2021/09/12 10:01:56;;;;;;;1.77;1.40;;;24.80;92.00;25.20;100789.00;;;;4952980;28;88416;-69
2021/09/12 10:04:28;;;;;;;1.50;1.40;;;24.90;92.00;25.50;100788.00;;;;4950665;28;88292;-69
2021/09/12 10:06:56;;;;;;;2.30;1.63;;;25.00;91.90;26.00;100791.00;;;;4953632;28;87732;-68
2021/09/12 10:09:22;;;;;;;2.10;1.65;;;25.50;91.10;26.50;100789.00;;;;4962058;28;87998;-68
2021/09/12 10:11:53;;;;;;;2.22;1.58;;;25.90;90.80;26.90;100785.00;;;;4953677;28;100553;-69
2021/09/12 10:14:28;;;;;;;2.80;1.75;;;26.50;86.60;27.10;100784.00;;;;4954071;28;91373;-70
2021/09/12 10:16:57;;;;;;;3.88;1.83;;;26.60;84.20;27.40;100780.00;;;;4954907;28;87768;-69
2021/09/12 10:19:43;;;;;;;2.15;1.80;;;26.80;78.40;27.60;100777.00;;;;4956019;28;92785;-68
2021/09/12 10:22:15;;;;;;;3.95;1.85;;;27.10;74.60;27.60;100769.00;;;;4962668;28;87895;-68
2021/09/12 10:25:01;;;;;;;2.58;1.70;;;27.00;71.10;27.70;100773.00;;;;4956064;28;88122;-68
2021/09/12 10:28:04;;;;;;;1.30;1.20;;;27.20;71.90;27.90;100769.00;;;;4964506;28;92874;-70
2021/09/12 10:30:37;;;;;;;1.60;1.50;;;27.40;73.60;28.20;100768.00;;;;4956797;28;86990;-69
2021/09/12 10:33:05;;;;;;;3.17;1.80;;;27.60;73.30;28.30;100771.00;;;;4955176;28;88739;-69
2021/09/12 10:35:38;;;;;;;2.05;1.30;;;27.80;73.20;28.30;100774.00;;;;4970841;28;88891;-68
2021/09/12 10:38:11;;;;;;;1.85;1.42;;;27.70;72.30;28.30;100763.00;;;;4962701;28;88882;-69
2021/09/12 10:40:46;;;;;;;1.83;1.50;;;27.80;71.50;28.10;100761.00;;;;4940011;28;87952;-68
2021/09/12 10:43:41;;;;;;;1.40;0.98;;;27.70;71.00;27.80;100758.00;;;;4970016;28;87491;-68
2021/09/12 10:46:09;;;;;;;2.97;1.42;;;27.50;71.40;27.60;100759.00;;;;4938881;28;89604;-67